Time;durP1;ratioP1;P1;durP2;ratioP2;P2;SDS_P1;SDS_P2;PMS_P1;PMS_P2;Temp;Humidity;BMP_temperature;BMP_pressure;BME280_temperature;BME280_humidity;BME280_pressure;Samples;Min_cycle;Max_cycle;Signal;HPM_P1;HPM_P2
2021/04/13 00:00:33;;;;;;;15.30;9.83;;;4.30;99.90;;;;;;5106727;28;20175;-69
2021/04/13 00:03:05;;;;;;;13.13;10.10;;;4.40;99.90;;;;;;5089080;28;20195;-69
2021/04/13 00:05:39;;;;;;;11.90;9.87;;;4.40;99.90;;;;;;5086290;28;20163;-69
2021/04/13 00:08:13;;;;;;;13.97;10.47;;;4.00;99.90;;;;;;5106991;28;20159;-68
2021/04/13 00:11:02;;;;;;;21.50;10.60;;;3.70;99.90;;;;;;5106835;28;20167;-68
2021/04/13 00:13:29;;;;;;;13.27;10.30;;;3.80;99.90;;;;;;5088912;28;20312;-69
2021/04/13 00:16:03;;;;;;;12.90;10.77;;;3.60;99.90;;;;;;5103653;28;20176;-69
2021/04/13 00:18:32;;;;;;;18.63;10.90;;;3.50;99.90;;;;;;5106847;28;20193;-68
2021/04/13 00:21:41;;;;;;;16.40;11.17;;;3.50;99.90;;;;;;5106578;28;20198;-68
2021/04/13 00:24:12;;;;;;;18.20;10.70;;;3.60;99.90;;;;;;5068017;28;20180;-69
2021/04/13 00:26:37;;;;;;;13.07;10.93;;;3.80;99.90;;;;;;5104079;28;20155;-69
2021/04/13 00:29:11;;;;;;;16.00;10.90;;;3.90;99.90;;;;;;5105283;28;20177;-68
2021/04/13 00:34:12;;;;;;;16.53;11.17;;;4.20;99.90;;;;;;5106646;28;20194;-69
2021/04/13 00:36:38;;;;;;;13.30;11.00;;;4.20;99.90;;;;;;5104301;28;20186;-69
2021/04/13 00:39:24;;;;;;;15.00;10.93;;;4.30;99.90;;;;;;5106271;28;20195;-69
2021/04/13 00:41:55;;;;;;;16.77;11.43;;;4.30;99.90;;;;;;5106633;28;20254;-69
2021/04/13 00:44:22;;;;;;;13.30;10.37;;;4.40;99.90;;;;;;5106227;28;20179;-68
2021/04/13 00:46:57;;;;;;;13.30;11.90;;;4.50;99.90;;;;;;5103910;28;20155;-68
2021/04/13 00:49:26;;;;;;;14.37;11.27;;;4.70;99.90;;;;;;5106481;28;20174;-68
2021/04/13 00:52:14;;;;;;;15.17;11.23;;;4.70;99.90;;;;;;5106463;28;20172;-69
2021/04/13 00:54:50;;;;;;;13.77;11.13;;;4.70;99.90;;;;;;5105479;28;20183;-68
2021/04/13 00:57:26;;;;;;;13.47;11.50;;;4.60;99.90;;;;;;5103581;28;20163;-68
2021/04/13 00:59:55;;;;;;;14.83;12.20;;;4.60;99.90;;;;;;5105595;28;20167;-68
2021/04/13 01:02:32;;;;;;;13.53;11.60;;;4.70;99.90;;;;;;5106170;28;20214;-69
2021/04/13 01:05:15;;;;;;;13.37;11.87;;;4.80;99.90;;;;;;5105652;28;20181;-69
2021/04/13 01:07:44;;;;;;;13.40;11.80;;;4.50;99.90;;;;;;5105658;28;20242;-69
2021/04/13 01:10:16;;;;;;;18.00;12.57;;;4.40;99.90;;;;;;5105635;28;20171;-69
2021/04/13 01:12:51;;;;;;;13.60;12.20;;;4.40;99.90;;;;;;5106043;28;20175;-69
2021/04/13 01:15:18;;;;;;;15.07;12.53;;;4.30;99.90;;;;;;5084760;28;20253;-68
2021/04/13 01:17:44;;;;;;;16.63;12.27;;;4.40;99.90;;;;;;5106004;28;20171;-68
2021/04/13 01:20:29;;;;;;;15.97;12.07;;;4.10;99.90;;;;;;5087282;28;20182;-69
2021/04/13 01:25:25;;;;;;;16.33;12.00;;;4.10;99.90;;;;;;5103400;28;20167;-68
2021/04/13 01:28:00;;;;;;;16.43;12.60;;;4.00;99.90;;;;;;5106133;28;20163;-69
2021/04/13 01:30:41;;;;;;;20.07;12.73;;;3.90;99.90;;;;;;5105171;28;20218;-69
2021/04/13 01:33:15;;;;;;;18.17;12.40;;;3.90;99.90;;;;;;5105657;28;20167;-69
2021/04/13 01:35:46;;;;;;;17.23;11.97;;;3.90;99.90;;;;;;5085003;28;20594;-69
2021/04/13 01:38:18;;;;;;;16.17;12.27;;;3.80;99.90;;;;;;5087285;28;20178;-69
2021/04/13 01:41:21;;;;;;;16.33;12.00;;;3.90;99.90;;;;;;5109827;28;20171;-69
2021/04/13 01:43:36;;;;;;;21.07;11.93;;;3.90;99.90;;;;;;5108980;28;20214;-68
2021/04/13 01:46:03;;;;;;;16.00;12.93;;;4.00;99.90;;;;;;5088804;28;20167;-69
2021/04/13 01:48:30;;;;;;;18.13;11.87;;;4.00;99.90;;;;;;5091563;28;20194;-69
2021/04/13 01:50:59;;;;;;;15.37;11.97;;;4.10;99.90;;;;;;5109603;28;20159;-68
2021/04/13 01:53:26;;;;;;;13.13;11.67;;;4.00;99.90;;;;;;5109846;28;20163;-69
2021/04/13 01:55:59;;;;;;;22.07;12.60;;;4.00;99.90;;;;;;5106763;28;20174;-69
2021/04/13 01:58:47;;;;;;;16.13;12.77;;;3.90;99.90;;;;;;5109304;28;20167;-69
2021/04/13 02:01:28;;;;;;;18.80;11.90;;;3.90;99.90;;;;;;5080060;28;20294;-69
2021/04/13 02:04:13;;;;;;;17.70;11.77;;;3.90;99.90;;;;;;5109485;28;20182;-69
2021/04/13 02:07:02;;;;;;;17.80;13.03;;;4.00;99.90;;;;;;5088870;28;20171;-69
2021/04/13 02:12:10;;;;;;;17.10;12.60;;;4.20;99.90;;;;;;5109688;28;20175;-68
2021/04/13 02:14:44;;;;;;;18.47;12.80;;;4.20;99.90;;;;;;5090793;28;20186;-69
2021/04/13 02:17:19;;;;;;;13.97;11.87;;;4.20;99.90;;;;;;5106693;28;20170;-69
2021/04/13 02:19:54;;;;;;;12.93;11.57;;;4.10;99.90;;;;;;5109179;28;20194;-69
2021/04/13 02:22:22;;;;;;;14.17;12.03;;;4.00;99.90;;;;;;5109361;28;20277;-69
2021/04/13 02:24:51;;;;;;;16.03;12.00;;;3.90;99.90;;;;;;5109077;28;20164;-68
2021/04/13 02:27:23;;;;;;;15.67;11.87;;;3.80;99.90;;;;;;5106340;28;20177;-69
2021/04/13 02:29:54;;;;;;;18.00;11.77;;;3.60;99.90;;;;;;5108537;28;20577;-69
2021/04/13 02:32:28;;;;;;;17.90;11.23;;;3.50;99.90;;;;;;5090960;28;20167;-69
2021/04/13 02:35:01;;;;;;;15.33;11.43;;;3.60;99.90;;;;;;5109129;28;20242;-69
2021/04/13 02:37:37;;;;;;;14.17;11.57;;;3.50;99.90;;;;;;5107410;28;20159;-68
2021/04/13 02:40:11;;;;;;;17.03;11.57;;;3.50;99.90;;;;;;5108502;28;20181;-69
2021/04/13 02:42:43;;;;;;;14.93;11.20;;;3.50;99.90;;;;;;5108818;28;20198;-68
2021/04/13 02:45:21;;;;;;;15.00;11.17;;;3.40;99.90;;;;;;5106700;28;20167;-68
2021/04/13 02:47:52;;;;;;;16.50;11.10;;;3.40;99.90;;;;;;5108920;28;20178;-69
2021/04/13 02:50:20;;;;;;;16.37;11.07;;;3.40;99.90;;;;;;5089601;28;20181;-68
2021/04/13 02:52:50;;;;;;;13.53;11.13;;;3.40;99.90;;;;;;5108561;28;20258;-68
2021/04/13 02:55:28;;;;;;;18.60;11.63;;;3.30;99.90;;;;;;5106065;28;20210;-69
2021/04/13 02:57:55;;;;;;;15.23;11.80;;;3.50;99.90;;;;;;5108535;28;20170;-68
2021/04/13 03:00:29;;;;;;;18.90;12.90;;;3.40;99.90;;;;;;5108068;28;20179;-68
2021/04/13 03:03:02;;;;;;;18.10;11.90;;;3.30;99.90;;;;;;5108370;28;20199;-69
2021/04/13 03:05:29;;;;;;;16.47;11.23;;;3.30;99.90;;;;;;5105555;28;20163;-69
2021/04/13 03:08:06;;;;;;;18.20;12.60;;;3.50;99.90;;;;;;5108249;28;20162;-68
2021/04/13 03:10:39;;;;;;;19.80;13.00;;;3.50;99.90;;;;;;5108440;28;20174;-69
2021/04/13 03:13:19;;;;;;;18.23;12.03;;;3.60;99.90;;;;;;5107671;28;20175;-69
2021/04/13 03:15:57;;;;;;;17.40;12.40;;;3.70;99.90;;;;;;5104938;28;20177;-69
2021/04/13 03:18:39;;;;;;;15.30;11.97;;;3.50;99.90;;;;;;5108505;28;20193;-68
2021/04/13 03:21:10;;;;;;;18.93;13.03;;;3.40;99.90;;;;;;5107907;28;20167;-68
2021/04/13 03:23:36;;;;;;;15.70;12.97;;;3.40;99.90;;;;;;5107976;28;20199;-68
2021/04/13 03:26:11;;;;;;;20.03;12.43;;;3.40;99.90;;;;;;5105175;28;20185;-68
2021/04/13 03:28:43;;;;;;;19.07;12.17;;;3.40;99.90;;;;;;5107815;28;20159;-69
2021/04/13 03:31:12;;;;;;;19.20;12.77;;;3.30;99.90;;;;;;5107205;28;20211;-68
2021/04/13 03:33:39;;;;;;;18.83;12.30;;;3.30;99.90;;;;;;5107817;28;20182;-68
2021/04/13 03:36:11;;;;;;;16.53;12.80;;;3.30;99.90;;;;;;5105206;28;20170;-69
2021/04/13 03:38:38;;;;;;;17.20;11.77;;;3.30;99.90;;;;;;5107667;28;20180;-69
2021/04/13 03:41:10;;;;;;;18.73;12.23;;;3.40;99.90;;;;;;5089145;28;20174;-69
2021/04/13 03:43:36;;;;;;;15.53;12.17;;;3.40;99.90;;;;;;5107516;28;20191;-69
2021/04/13 03:46:04;;;;;;;24.93;13.10;;;3.40;99.90;;;;;;5104747;28;20167;-69
2021/04/13 03:48:32;;;;;;;19.30;13.03;;;3.40;99.90;;;;;;5107570;28;20250;-68
2021/04/13 03:51:14;;;;;;;25.90;13.57;;;3.50;99.90;;;;;;5107108;28;20093;-68
2021/04/13 03:53:45;;;;;;;18.20;12.67;;;3.50;99.90;;;;;;5107485;28;20160;-69
2021/04/13 03:56:18;;;;;;;20.80;12.63;;;3.40;99.90;;;;;;5104762;28;20223;-69
2021/04/13 03:58:58;;;;;;;19.97;14.07;;;3.30;99.90;;;;;;5107191;28;20178;-69
2021/04/13 04:01:29;;;;;;;18.77;13.00;;;3.20;99.90;;;;;;5107179;28;20167;-68
2021/04/13 04:04:01;;;;;;;22.30;15.13;;;3.20;99.90;;;;;;5106448;28;20401;-68
2021/04/13 04:06:52;;;;;;;18.20;13.33;;;3.30;99.90;;;;;;5104834;28;20190;-69
2021/04/13 04:09:21;;;;;;;20.77;13.37;;;3.30;99.90;;;;;;5106826;28;20199;-68
2021/04/13 04:11:48;;;;;;;25.02;15.70;;;3.20;99.90;;;;;;5106367;28;20397;-68
2021/04/13 04:14:19;;;;;;;22.67;13.80;;;3.40;99.90;;;;;;5106596;28;20183;-68
2021/04/13 04:16:45;;;;;;;21.70;14.13;;;3.30;99.90;;;;;;5104400;28;20163;-68
2021/04/13 04:19:21;;;;;;;23.35;15.50;;;3.20;99.90;;;;;;5106399;28;20743;-69
2021/04/13 04:22:14;;;;;;;21.07;13.67;;;3.40;99.90;;;;;;5107004;28;20235;-69
2021/04/13 04:24:43;;;;;;;18.80;14.87;;;3.40;99.90;;;;;;5106692;28;20160;-69
2021/04/13 04:27:15;;;;;;;19.67;14.37;;;3.40;99.90;;;;;;5103859;28;20625;-69
2021/04/13 04:29:46;;;;;;;26.47;15.53;;;3.40;99.90;;;;;;5106166;28;20207;-68
2021/04/13 04:32:40;;;;;;;25.90;15.90;;;3.40;99.90;;;;;;5106611;28;20167;-69
2021/04/13 04:35:09;;;;;;;22.97;15.47;;;3.30;99.90;;;;;;5100995;28;20179;-68
2021/04/13 04:37:48;;;;;;;21.40;15.20;;;3.50;99.90;;;;;;5105893;28;20160;-69
2021/04/13 04:40:25;;;;;;;28.80;16.40;;;3.40;99.90;;;;;;5105865;28;20171;-68
2021/04/13 04:42:53;;;;;;;25.90;17.10;;;3.20;99.90;;;;;;5106584;28;20277;-68
2021/04/13 04:45:20;;;;;;;28.60;16.73;;;3.10;99.90;;;;;;5102699;28;20167;-69
2021/04/13 04:47:48;;;;;;;23.30;16.47;;;3.00;99.90;;;;;;5087873;28;20174;-69
2021/04/13 04:50:16;;;;;;;30.83;17.20;;;3.00;99.90;;;;;;5105528;28;20167;-69
2021/04/13 04:52:42;;;;;;;30.17;17.97;;;2.90;99.90;;;;;;5106330;28;20167;-68
2021/04/13 04:55:09;;;;;;;33.27;17.90;;;2.90;99.90;;;;;;5104745;28;20197;-69
2021/04/13 04:57:35;;;;;;;29.63;18.17;;;2.90;99.90;;;;;;5087292;28;20189;-69
2021/04/13 05:00:01;;;;;;;25.47;16.90;;;2.90;99.90;;;;;;5105768;28;20664;-68
2021/04/13 05:02:26;;;;;;;34.00;18.03;;;2.70;99.90;;;;;;5106268;28;20554;-69
2021/04/13 05:04:52;;;;;;;29.97;17.83;;;2.70;99.90;;;;;;5106064;28;20266;-68
2021/04/13 05:07:18;;;;;;;26.30;17.43;;;2.70;99.90;;;;;;5085366;28;20227;-68
2021/04/13 05:09:44;;;;;;;25.47;17.27;;;2.70;99.90;;;;;;5087395;28;20199;-69
2021/04/13 05:12:10;;;;;;;30.00;17.80;;;2.80;99.90;;;;;;5087761;28;20175;-68
2021/04/13 05:14:35;;;;;;;33.87;16.97;;;3.00;99.90;;;;;;5105260;28;20171;-68
2021/04/13 05:17:01;;;;;;;28.77;17.30;;;2.90;99.90;;;;;;5103352;28;20155;-68
2021/04/13 05:19:27;;;;;;;26.50;17.20;;;2.80;99.90;;;;;;5105861;28;20168;-68
2021/04/13 05:21:52;;;;;;;23.90;17.37;;;2.90;99.90;;;;;;5087815;28;20254;-68
2021/04/13 05:24:18;;;;;;;23.80;17.73;;;3.10;99.90;;;;;;5087731;28;20174;-68
2021/04/13 05:26:44;;;;;;;30.30;16.87;;;3.10;99.90;;;;;;5103093;28;20171;-68
2021/04/13 05:29:10;;;;;;;28.70;18.30;;;3.10;99.90;;;;;;5087177;28;20167;-68
2021/04/13 05:31:39;;;;;;;24.17;16.67;;;3.20;99.90;;;;;;5105400;28;20193;-68
2021/04/13 05:34:07;;;;;;;32.17;17.30;;;3.20;99.90;;;;;;5105747;28;20183;-68
2021/04/13 05:36:33;;;;;;;31.10;17.57;;;3.30;99.90;;;;;;5103367;28;20219;-69
2021/04/13 05:38:59;;;;;;;33.40;18.93;;;3.40;99.90;;;;;;5087199;28;20174;-68
2021/04/13 05:41:26;;;;;;;31.10;18.57;;;3.40;99.90;;;;;;5105645;28;20159;-69
2021/04/13 05:43:52;;;;;;;27.23;17.90;;;3.40;99.90;;;;;;5105701;28;20195;-69
2021/04/13 05:46:22;;;;;;;34.13;18.30;;;3.40;99.90;;;;;;5102864;28;20652;-68
2021/04/13 05:48:48;;;;;;;32.20;18.40;;;3.50;99.90;;;;;;5105783;28;20170;-68
2021/04/13 05:51:13;;;;;;;28.63;19.03;;;3.50;99.90;;;;;;5105322;28;20195;-68
2021/04/13 05:53:39;;;;;;;39.40;19.00;;;3.50;99.90;;;;;;5105747;28;20175;-68
2021/04/13 05:56:06;;;;;;;27.53;18.67;;;3.50;99.90;;;;;;5102866;28;20163;-69
2021/04/13 05:58:42;;;;;;;34.30;19.77;;;3.50;99.90;;;;;;5105595;28;20166;-69
2021/04/13 06:01:09;;;;;;;33.40;18.93;;;3.60;99.90;;;;;;5104949;28;20185;-69
2021/04/13 06:03:36;;;;;;;35.10;19.57;;;3.60;99.90;;;;;;5087271;28;20641;-69
2021/04/13 06:06:01;;;;;;;34.97;20.77;;;3.80;99.90;;;;;;5102816;28;20280;-67
2021/04/13 06:08:27;;;;;;;30.33;20.00;;;3.70;99.90;;;;;;5105585;28;20284;-67
2021/04/13 06:10:56;;;;;;;29.43;20.30;;;3.60;99.90;;;;;;5105417;28;20155;-69
2021/04/13 06:13:22;;;;;;;42.10;23.20;;;3.70;99.90;;;;;;5105690;28;20169;-70
2021/04/13 06:15:50;;;;;;;40.37;23.53;;;3.70;99.90;;;;;;5102752;28;20230;-69
2021/04/13 06:18:16;;;;;;;44.40;24.03;;;3.80;99.90;;;;;;5105423;28;20152;-69
2021/04/13 06:20:42;;;;;;;43.20;25.77;;;3.90;99.90;;;;;;5104994;28;20160;-68
2021/04/13 06:23:08;;;;;;;45.47;26.93;;;3.90;99.90;;;;;;5105248;28;20206;-67
2021/04/13 06:25:34;;;;;;;52.20;34.03;;;3.90;99.90;;;;;;5102932;28;20227;-67
2021/04/13 06:28:00;;;;;;;68.43;40.47;;;3.90;99.90;;;;;;5109264;28;20190;-67
2021/04/13 06:30:27;;;;;;;79.50;42.57;;;4.00;99.90;;;;;;5108236;28;20207;-69
2021/04/13 06:32:53;;;;;;;68.37;39.23;;;4.10;99.90;;;;;;5090937;28;20190;-68
2021/04/13 06:35:19;;;;;;;63.47;34.67;;;4.10;99.90;;;;;;5106586;28;20243;-70
2021/04/13 06:37:46;;;;;;;60.77;32.13;;;4.20;99.90;;;;;;5109177;28;20167;-69
2021/04/13 06:40:27;;;;;;;55.30;29.07;;;4.30;99.90;;;;;;5108389;28;20171;-68
2021/04/13 06:43:14;;;;;;;58.73;27.10;;;4.30;99.90;;;;;;5108678;28;20197;-67
2021/04/13 06:45:39;;;;;;;52.23;27.33;;;4.40;99.90;;;;;;5087597;28;20167;-69
2021/04/13 06:48:35;;;;;;;52.37;24.40;;;4.50;99.90;;;;;;5108654;28;20182;-67
2021/04/13 06:51:29;;;;;;;46.73;24.33;;;4.50;99.90;;;;;;5108163;28;20171;-69
2021/04/13 06:54:06;;;;;;;47.03;24.53;;;4.60;99.90;;;;;;5090327;28;20185;-69
2021/04/13 06:56:47;;;;;;;50.17;23.70;;;4.70;99.90;;;;;;5106053;28;20175;-69
2021/04/13 06:59:24;;;;;;;46.50;25.10;;;4.70;99.90;;;;;;5108381;28;20159;-68
2021/04/13 07:01:53;;;;;;;47.22;26.35;;;5.00;99.90;;;;;;5108338;28;20408;-67
2021/04/13 07:04:28;;;;;;;46.40;24.63;;;5.30;99.90;;;;;;5090377;28;20269;-69
2021/04/13 07:07:35;;;;;;;43.97;22.30;;;5.60;99.90;;;;;;5106197;28;20155;-69
2021/04/13 07:10:25;;;;;;;55.70;23.40;;;5.60;99.90;;;;;;5067359;28;20179;-67
2021/04/13 07:13:08;;;;;;;48.22;27.75;;;5.70;99.90;;;;;;5107426;28;20960;-70
2021/04/13 07:15:53;;;;;;;44.03;25.37;;;6.00;99.90;;;;;;5105414;28;20171;-67
2021/04/13 07:18:25;;;;;;;43.53;24.77;;;6.00;99.90;;;;;;5108660;28;20592;-67
2021/04/13 07:21:04;;;;;;;39.40;23.03;;;6.00;99.90;;;;;;5108000;28;20178;-67
2021/04/13 07:23:37;;;;;;;48.03;25.07;;;6.10;99.90;;;;;;5108143;28;20191;-67
2021/04/13 07:26:10;;;;;;;36.00;20.87;;;6.20;99.90;;;;;;5087093;28;20569;-67
2021/04/13 07:28:54;;;;;;;38.95;22.17;;;6.20;99.90;;;;;;5107286;28;20450;-67
2021/04/13 07:31:27;;;;;;;34.37;19.27;;;6.30;99.90;;;;;;5107176;28;20230;-67
2021/04/13 07:33:53;;;;;;;33.93;19.60;;;6.40;99.90;;;;;;5089752;28;20183;-67
2021/04/13 07:36:24;;;;;;;39.90;21.57;;;6.40;99.90;;;;;;5105215;28;20171;-68
2021/04/13 07:38:52;;;;;;;32.07;19.90;;;6.40;99.90;;;;;;5107706;28;20171;-69
2021/04/13 07:41:38;;;;;;;24.33;12.87;;;6.60;99.90;;;;;;5107306;28;20244;-68
2021/04/13 07:44:14;;;;;;;17.40;11.83;;;6.60;99.90;;;;;;5107725;28;20172;-68
2021/04/13 07:46:50;;;;;;;17.60;10.77;;;6.50;99.90;;;;;;5086441;28;20163;-67
2021/04/13 07:49:50;;;;;;;25.20;11.73;;;6.50;99.90;;;;;;5107361;28;20159;-67
2021/04/13 07:52:18;;;;;;;13.98;7.90;;;6.60;99.90;;;;;;5102051;28;20420;-68
2021/04/13 07:55:00;;;;;;;15.87;10.67;;;6.60;99.90;;;;;;5089235;28;20167;-68
2021/04/13 07:58:03;;;;;;;24.37;9.90;;;6.70;99.90;;;;;;5105345;28;20278;-68
2021/04/13 08:00:33;;;;;;;15.80;8.30;;;6.70;99.90;;;;;;5106553;28;20227;-68
2021/04/13 08:03:14;;;;;;;16.20;5.83;;;6.80;99.90;;;;;;5088643;28;20202;-68
2021/04/13 08:05:48;;;;;;;12.90;6.97;;;6.90;99.90;;;;;;5086249;28;20174;-68
2021/04/13 08:08:37;;;;;;;13.07;7.10;;;6.80;99.90;;;;;;5107097;28;20633;-68
2021/04/13 08:11:17;;;;;;;8.03;4.63;;;7.00;99.90;;;;;;5088162;28;20202;-68
2021/04/13 08:13:46;;;;;;;6.20;2.80;;;6.90;99.90;;;;;;5106908;28;20159;-69
2021/04/13 08:16:36;;;;;;;5.00;3.30;;;7.00;99.90;;;;;;5104144;28;20171;-68
2021/04/13 08:19:28;;;;;;;11.03;1.73;;;7.20;99.90;;;;;;5106666;28;20227;-68
2021/04/13 08:22:08;;;;;;;8.70;3.13;;;7.20;99.90;;;;;;5106714;28;20156;-68
2021/04/13 08:24:42;;;;;;;9.53;4.17;;;7.20;99.90;;;;;;5088407;28;20159;-68
2021/04/13 08:27:36;;;;;;;13.67;5.60;;;7.10;99.90;;;;;;5103297;28;20631;-68
2021/04/13 08:30:34;;;;;;;10.70;5.17;;;7.10;99.90;;;;;;5105798;28;20211;-68
2021/04/13 08:33:41;;;;;;;13.23;5.77;;;7.30;99.90;;;;;;5088018;28;20159;-67
2021/04/13 08:36:23;;;;;;;8.27;5.20;;;7.80;99.90;;;;;;5104001;28;20167;-67
2021/04/13 08:39:10;;;;;;;7.23;3.90;;;8.50;99.90;;;;;;5106211;28;20167;-67
2021/04/13 08:41:44;;;;;;;7.77;3.60;;;8.50;99.90;;;;;;5106225;28;20171;-67
2021/04/13 08:44:34;;;;;;;9.63;2.60;;;8.10;99.90;;;;;;5106314;28;20163;-67
2021/04/13 08:47:40;;;;;;;5.43;2.77;;;8.10;99.90;;;;;;5103771;28;20164;-67
2021/04/13 08:50:26;;;;;;;5.53;2.40;;;8.10;99.90;;;;;;5023042;28;20304;-67
2021/04/13 08:52:58;;;;;;;3.53;2.50;;;8.30;99.90;;;;;;5022873;28;20690;-67
2021/04/13 08:55:36;;;;;;;6.07;2.90;;;8.50;99.90;;;;;;5021224;28;20305;-67
2021/04/13 08:58:13;;;;;;;7.37;2.60;;;8.80;99.90;;;;;;5023632;28;20233;-67
2021/04/13 09:00:42;;;;;;;4.97;2.23;;;8.80;99.90;;;;;;5006693;28;20192;-68
2021/04/13 09:03:12;;;;;;;8.83;3.00;;;8.80;99.90;;;;;;5023433;28;20659;-68
2021/04/13 09:05:39;;;;;;;12.97;3.50;;;9.10;99.90;;;;;;5020906;28;20177;-68
2021/04/13 09:08:11;;;;;;;6.60;3.43;;;9.20;99.90;;;;;;5023562;28;20229;-69
2021/04/13 09:10:43;;;;;;;4.87;2.70;;;9.30;99.90;;;;;;5023402;28;20178;-69
2021/04/13 09:13:20;;;;;;;8.43;2.10;;;9.50;99.90;;;;;;5022767;28;20248;-69
2021/04/13 09:16:08;;;;;;;6.90;2.20;;;9.40;99.90;;;;;;5020763;28;20219;-69
2021/04/13 09:18:50;;;;;;;5.10;2.33;;;9.70;99.90;;;;;;5023809;28;20201;-69
2021/04/13 09:21:23;;;;;;;3.07;1.60;;;10.10;99.90;;;;;;5078507;28;20187;-68
2021/04/13 09:24:13;;;;;;;7.00;2.10;;;10.40;99.90;;;;;;5105806;28;20192;-68
2021/04/13 09:26:57;;;;;;;8.93;2.23;;;10.20;99.90;;;;;;5103174;28;20181;-68
2021/04/13 09:29:36;;;;;;;7.67;2.27;;;9.90;99.90;;;;;;5104578;28;20166;-69
2021/04/13 09:32:22;;;;;;;7.00;2.50;;;9.60;99.90;;;;;;5086766;28;20190;-69
2021/04/13 09:35:15;;;;;;;6.77;2.80;;;9.60;99.90;;;;;;5090597;28;20438;-69
2021/04/13 09:38:03;;;;;;;7.87;2.30;;;9.50;99.90;;;;;;5105145;28;20167;-69
2021/04/13 09:41:00;;;;;;;6.93;3.23;;;9.50;99.90;;;;;;5105308;28;20182;-69
2021/04/13 09:43:59;;;;;;;8.37;3.13;;;10.10;99.90;;;;;;5087310;28;20199;-69
2021/04/13 09:46:43;;;;;;;4.70;3.50;;;10.60;99.90;;;;;;5102790;28;20234;-67
2021/04/13 09:49:21;;;;;;;5.40;3.73;;;11.00;99.90;;;;;;5105200;28;20190;-67
2021/04/13 09:51:46;;;;;;;4.27;3.00;;;11.40;99.90;;;;;;5105378;28;20163;-66
2021/04/13 09:54:34;;;;;;;7.03;3.80;;;11.70;99.90;;;;;;5105379;28;20529;-68
2021/04/13 09:57:06;;;;;;;8.38;3.30;;;12.10;99.90;;;;;;5102766;28;20163;-69
2021/04/13 10:00:05;;;;;;;9.93;3.60;;;12.20;99.90;;;;;;5087141;28;20257;-69
2021/04/13 10:02:53;;;;;;;8.60;3.30;;;12.10;99.90;;;;;;5109142;28;20254;-69
2021/04/13 10:05:30;;;;;;;7.15;3.15;;;12.10;99.90;;;;;;5088467;28;20474;-69
2021/04/13 10:08:07;;;;;;;6.10;3.33;;;11.70;99.90;;;;;;5090836;28;20155;-69
2021/04/13 10:11:04;;;;;;;10.03;3.30;;;11.70;99.90;;;;;;5109085;28;20252;-69
2021/04/13 10:13:48;;;;;;;10.10;3.77;;;11.40;99.90;;;;;;5109291;28;20175;-69
2021/04/13 10:16:42;;;;;;;7.03;3.42;;;11.00;99.90;;;;;;5104935;28;20764;-69
2021/04/13 10:19:44;;;;;;;5.73;3.23;;;10.60;99.90;;;;;;5108926;28;20178;-69
2021/04/13 10:22:31;;;;;;;9.87;2.97;;;9.90;99.90;;;;;;5108761;28;20202;-69
2021/04/13 10:25:31;;;;;;;5.67;3.20;;;9.50;99.90;;;;;;5090106;28;20167;-69
2021/04/13 10:28:14;;;;;;;8.90;2.87;;;9.40;99.90;;;;;;5107445;28;20272;-69
2021/04/13 10:30:55;;;;;;;6.93;2.70;;;9.90;99.90;;;;;;5090099;28;20221;-70
2021/04/13 10:33:58;;;;;;;4.47;2.20;;;9.90;99.90;;;;;;5108981;28;20171;-69
2021/04/13 10:36:47;;;;;;;7.90;3.57;;;10.20;99.90;;;;;;5087922;28;20175;-69
2021/04/13 10:39:26;;;;;;;6.87;1.97;;;10.20;99.90;;;;;;5026075;28;20190;-69
2021/04/13 10:42:30;;;;;;;6.10;2.33;;;10.40;99.90;;;;;;5026161;28;20252;-69
2021/04/13 10:45:18;;;;;;;4.30;2.13;;;11.00;99.90;;;;;;5025655;28;20189;-69
2021/04/13 10:48:02;;;;;;;4.70;2.17;;;11.10;99.90;;;;;;5026317;28;20227;-69
2021/04/13 10:50:37;;;;;;;3.97;2.17;;;11.20;99.90;;;;;;5025873;28;20253;-69
2021/04/13 10:53:26;;;;;;;3.53;2.13;;;11.80;99.90;;;;;;5009677;28;20179;-69
2021/04/13 10:56:16;;;;;;;3.55;2.22;;;12.50;99.90;;;;;;5006828;28;20533;-69
2021/04/13 10:59:07;;;;;;;7.80;2.40;;;12.90;99.90;;;;;;5026036;28;20205;-69
2021/04/13 11:02:13;;;;;;;5.15;2.50;;;13.40;99.90;;;;;;5025607;28;20198;-69
2021/04/13 11:05:06;;;;;;;3.78;2.40;;;13.80;99.90;;;;;;4967258;29;20206;-69
2021/04/13 11:08:11;;;;;;;5.53;2.08;;;13.20;99.90;;;;;;4965955;29;20277;-69
2021/04/13 11:10:55;;;;;;;4.70;2.38;;;12.90;99.90;;;;;;4966993;29;20232;-69
2021/04/13 11:13:53;;;;;;;4.43;2.35;;;12.60;99.90;;;;;;4966791;29;20176;-69
2021/04/13 11:16:35;;;;;;;3.22;2.25;;;12.00;99.90;;;;;;4974848;28;20246;-69
2021/04/13 11:19:18;;;;;;;7.47;2.55;;;11.60;99.90;;;;;;5025750;28;20170;-69
2021/04/13 11:22:17;;;;;;;10.10;2.30;;;11.50;99.90;;;;;;5025429;28;20182;-70
2021/04/13 11:25:10;;;;;;;3.35;1.60;;;11.60;99.90;;;;;;5025669;28;20236;-70
2021/04/13 11:27:55;;;;;;;4.35;1.85;;;11.80;99.90;;;;;;5024671;28;20236;-69
2021/04/13 11:31:05;;;;;;;3.70;1.52;;;11.70;99.90;;;;;;5024718;28;20221;-69
2021/04/13 11:34:07;;;;;;;3.05;1.80;;;12.60;99.90;;;;;;4947620;29;20260;-69
2021/04/13 11:37:05;;;;;;;4.10;1.60;;;13.10;99.90;;;;;;4944623;29;20180;-69
2021/04/13 11:39:40;;;;;;;5.85;1.67;;;13.30;99.90;;;;;;4909364;29;20246;-69
2021/04/13 11:42:26;;;;;;;5.70;1.40;;;13.60;99.90;;;;;;4922178;29;20209;-69
2021/04/13 11:45:16;;;;;;;3.85;1.60;;;14.00;99.90;;;;;;4928267;29;20177;-69
2021/04/13 11:47:50;;;;;;;3.67;1.73;;;13.80;99.90;;;;;;4928244;29;20172;-70
2021/04/13 11:50:38;;;;;;;3.22;2.08;;;13.40;99.90;;;;;;4912507;29;20185;-69
2021/04/13 11:53:11;;;;;;;4.80;1.58;;;13.10;99.90;;;;;;4908964;29;20204;-69
2021/04/13 11:55:42;;;;;;;1.77;1.20;;;13.00;99.90;;;;;;4925619;29;20811;-69
2021/04/13 11:58:14;;;;;;;1.60;1.27;;;12.60;99.90;;;;;;4928095;29;20208;-69
2021/04/13 12:00:40;;;;;;;2.38;1.35;;;12.20;99.90;;;;;;4927886;29;20184;-69
2021/04/13 12:03:21;;;;;;;1.58;1.25;;;12.40;99.90;;;;;;4927973;29;20201;-69
2021/04/13 12:05:54;;;;;;;2.90;1.33;;;12.60;99.90;;;;;;4925172;29;20169;-69
2021/04/13 12:08:41;;;;;;;2.33;1.40;;;12.70;99.90;;;;;;4938600;28;20688;-69
2021/04/13 12:11:15;;;;;;;2.10;1.42;;;12.20;99.90;;;;;;4985217;28;20328;-69
2021/04/13 12:13:52;;;;;;;2.15;1.27;;;12.20;99.90;;;;;;4985641;28;20171;-69
2021/04/13 12:16:20;;;;;;;2.38;1.52;;;12.60;99.90;;;;;;5065620;28;20191;-70
2021/04/13 12:18:47;;;;;;;4.60;1.33;;;12.90;99.90;;;;;;5106970;28;20227;-69
2021/04/13 12:21:22;;;;;;;3.03;1.30;;;13.40;99.90;;;;;;5088337;28;20189;-69
2021/04/13 12:23:55;;;;;;;4.97;1.40;;;13.20;99.90;;;;;;5105858;28;20201;-69
2021/04/13 12:26:47;;;;;;;1.38;1.25;;;13.50;99.90;;;;;;5104158;28;20163;-69
2021/04/13 12:29:32;;;;;;;2.22;1.05;;;14.00;99.90;;;;;;5106195;28;20437;-69
2021/04/13 12:32:13;;;;;;;5.28;1.20;;;13.60;99.90;;;;;;5106135;28;20716;-69
2021/04/13 12:35:00;;;;;;;4.70;1.00;;;13.40;99.90;;;;;;5088470;28;20163;-67
2021/04/13 12:37:47;;;;;;;1.05;0.90;;;13.40;99.90;;;;;;5104819;28;20151;-67
2021/04/13 12:40:19;;;;;;;1.77;0.90;;;13.00;99.90;;;;;;5087808;28;20166;-68
2021/04/13 12:42:52;;;;;;;1.30;0.73;;;13.20;99.90;;;;;;5106369;28;20254;-69
2021/04/13 12:45:23;;;;;;;1.48;1.10;;;13.20;99.90;;;;;;5103176;28;20198;-69
2021/04/13 12:48:15;;;;;;;0.82;0.82;;;13.20;99.90;;;;;;5088018;28;20159;-69
2021/04/13 12:50:47;;;;;;;4.15;1.17;;;13.50;99.90;;;;;;5106152;28;20200;-69
2021/04/13 12:53:17;;;;;;;4.80;1.25;;;14.10;99.90;;;;;;5106121;28;20164;-69
2021/04/13 12:55:44;;;;;;;1.48;1.30;;;14.40;99.90;;;;;;5103679;28;20573;-67
2021/04/13 12:58:13;;;;;;;1.10;1.00;;;14.60;99.90;;;;;;5105985;28;20182;-67
2021/04/13 13:00:44;;;;;;;2.55;1.13;;;14.90;99.90;;;;;;5105064;28;20174;-67
2021/04/13 13:03:15;;;;;;;1.33;1.13;;;15.10;99.90;;;;;;5104982;28;20560;-69
2021/04/13 13:05:42;;;;;;;2.67;1.23;;;15.10;99.90;;;;;;5103458;28;20178;-70
2021/04/13 13:08:21;;;;;;;3.47;1.05;;;15.40;99.90;;;;;;5105742;28;20159;-69
2021/04/13 13:10:50;;;;;;;3.45;1.27;;;15.50;99.90;;;;;;5105124;28;20414;-67
2021/04/13 13:13:21;;;;;;;1.73;1.30;;;15.50;99.70;;;;;;5105292;28;20168;-69
2021/04/13 13:15:47;;;;;;;6.25;1.50;;;15.80;99.90;;;;;;5102540;28;20250;-67
2021/04/13 13:18:19;;;;;;;2.92;1.15;;;15.90;99.90;;;;;;5087267;28;20198;-67
2021/04/13 13:20:46;;;;;;;5.43;1.20;;;15.60;99.90;;;;;;5105533;28;20174;-69
2021/04/13 13:23:26;;;;;;;2.13;1.30;;;15.40;99.90;;;;;;5105219;28;20660;-69
2021/04/13 13:25:52;;;;;;;2.28;1.17;;;14.90;99.90;;;;;;5084759;28;20171;-69
2021/04/13 13:28:22;;;;;;;6.10;1.25;;;14.10;99.90;;;;;;5105388;28;20155;-68
2021/04/13 13:30:49;;;;;;;2.78;1.40;;;13.80;99.90;;;;;;5104842;28;20215;-67
2021/04/13 13:33:17;;;;;;;2.42;1.30;;;13.60;99.90;;;;;;5105405;28;20175;-67
2021/04/13 13:35:43;;;;;;;2.60;1.40;;;13.50;99.90;;;;;;5102581;28;20159;-69
2021/04/13 13:38:13;;;;;;;2.28;1.30;;;13.70;99.90;;;;;;5105554;28;20159;-68